Airfield :
LOGIN :

Register | Disclaimer

   EN    FR    IT 

 










Legend :    VFR   Marginal VFR   IFR   Intensive IFR   Very Intensive IFR
Visi :
Ceiling :
>= 8 km
>= 3000ft
5 to 8 km
1000 to 3000 ft
1500m to 5 km
500 to 1000 ft
800 to 1500m
200 to 500 ft
< 800m
< 200 ft
Symbols :   Thunderstorms  Fog  Heavy snow  Heavy precipitations  Wind > 20 kt
SIGMETs :     Misc.  Thunderstorms  Icing  Turbulence  Mountain Waves  Volcanic Ashes






- Airport Elevation : 17 ft
- IATA code : MPL


LFMT - Montpellier Méditerranée

CURRENT METAR :
  • 021100Z AUTO 16007KT 140V210 CAVOK 29/10 Q1019 NOSIG

EXPIRED METARs :
  • 021030Z AUTO 13009KT CAVOK 28/11 Q1019 BECMG 20010KT
  • 021000Z AUTO VRB05KT CAVOK 29/09 Q1019 NOSIG
  • 020930Z AUTO 04006KT 320V130 CAVOK 28/09 Q1019 BECMG 20010KT
  • 020900Z AUTO 03007KT 340V070 CAVOK 27/09 Q1019 BECMG 20010KT
  • 020830Z AUTO 02008KT 340V070 CAVOK 26/11 Q1019 BECMG 20010KT
  • 012130Z AUTO 03005KT CAVOK 21/11 Q1018 NOSIG

TAF TAF LFMT
Valid from the 02 at 09:00 until the 03 at 09:00 UTC


020800Z 0209/0309 01010KT CAVOK
BECMG 0210/0212 20010KT
BECMG 0221/0223 36006KT
ATIS : +33 4 67 13 11 70



MET'MAP, your aeronautical weather chart ! - Copyright ORBIFLY December 2007 - Disclaimer

ORBIFLY MET'MAP TEAM :

Programming & Development : Alexandra Zaïnal
Original concept : Baudouin d'Aumeries
Technical & hardware support : Manuel Goepfert
Assistance : Marc-Olivier Méhu




SOURCES & CREDITS :

   NOAA